Terminal Aerodrome Forecast
Issued by NWS

Home | Current Version | Previous Version | Text Only | Print | Product List | Glossary On
Versions: 1 2 3 4 5 6 7 8 9 10 11 12 13
267
FTUS45 KTFX 271742
TAFHLN
TAF
KHLN 271742Z 2718/2818 27006KT P6SM SCT090
     FM272200 34005KT P6SM SCT070 BKN130
      TEMPO 2801/2803 VRB15G35KT -TSRA BKN060CB
     FM280400 28005KT P6SM SCT110=

USA.gov is the U.S. government's official web portal to all federal, state and local government web resources and services.